Amboy, CA

1:59 AM PDT on July 25, 2014 (GMT -0700)
Twentynine Palms Expeditionary Air Field (KNXP) Elev 2054 ft | 34.30 °N, 116.16 °W | Change Station

Current weather conditions updated 3 minutes ago

Clear
Clear
90 °F
Feels Like 90 °F
N
5
Wind Variable Wind from North

Today is forecast to be nearly the same temperature as yesterday.

Today
High -- | Low -- °F
--% Chance of Precip.
Yesterday
High -- | Low -- °F
Precip. -- in
5:48 AM 7:50 PM
Waning Crescent, 2% visible
Pressure 29.77 in
Visibility 10.0 miles
Clouds Clear
Dew Point 44 °F
Humidity 20%
Rainfall 0.00 in
Snow Depth Not available.
UV 0 out of 12
Pollen 4.70 out of 12
Air Quality Not available.
Flu Activity Not available.
METAR KNXP 250856Z AUTO 01004KT 10SM CLR 32/07 A2990 RMK AO2 SLP080 T03220067 50002

More Conditions Fewer Conditions

Pressure 29.77 in
Visibility 10.0 miles
Clouds Clear
Dew Point 44 °F
Humidity 20%
Rainfall 0.00 in
Snow Depth Not available.
UV 0 out of 12
Pollen 4.70 out of 12
Air Quality Not available.
Flu Activity Not available.
METAR KNXP 250856Z AUTO 01004KT 10SM CLR 32/07 A2990 RMK AO2 SLP080 T03220067 50002

More Conditions Fewer Conditions

10-Day Weather Forecast

Almanac

Astronomy

Jul. 25, 2014 Rise Set
Actual Time 5:48 AM PDT 7:50 PM PDT
Civil Twilight 5:20 AM PDT 8:18 PM PDT
Nautical Twilight 4:46 AM PDT 8:53 PM PDT
Astronomical Twilight 4:09 AM PDT 9:29 PM PDT
Moon 4:50 AM PDT 6:53 PM PDT
Length of Visible Light 14h 58m
Length of Day
14h 02m
Tomorrow will be 1m 27s shorter.
Waning Crescent, 2% of the Moon is Illuminated
Today
Waning Crescent
Jul 26
New
Aug 3
First Quarter
Aug 10
Full
Aug 17
Last Quarter

Today's Extremes

State Highs State Lows

Community

WunderPhotos

Upload Photos

1,737,276 photos uploaded!

Nearby

Air Quality

  Air Quality AQ Index Pollutant
Friday Moderate
OZONE
Friday Good
PM10
Friday Good
CO
Friday Good
NO2

Snow Depth

Station Depth Elevation
Leavitt Lake 0 in 9400 ft
Leavitt Meadows 1 in 7200 ft
Summit Meadow 0 in 9122 ft
Monitor Pass 0 in 8350 ft
Forestdale Creek 0 in 8029 ft

Earthquake Activity

City Distance Mag. Time & Date
Baker, California 66 miles 3.0 12:48 PM PDT
2014-07-20
Baker, California 66 miles 3.2 12:43 PM PDT
2014-07-20
Pine Valley, California 120 miles 3.1 2:18 AM PDT
2014-07-20
Pine Valley, California 118 miles 2.5 11:09 AM PDT
2014-07-18
Minimum magnitude displayed is 2.5.

Coastal Water Temperatures

Place Temperature
No Stations Reporting

Nearby Weather Stations

There are no personal weather stations in this area.